sensor_id;sensor_type;location;lat;lon;timestamp;P1;durP1;ratioP1;P2;durP2;ratioP2
56114;SDS011;41988;53.020;6.576;2022-11-20T00:02:26;26.00;;;16.53;;
56114;SDS011;41988;53.020;6.576;2022-11-20T00:05:10;29.53;;;16.90;;
56114;SDS011;41988;53.020;6.576;2022-11-20T00:07:55;29.40;;;17.10;;
56114;SDS011;41988;53.020;6.576;2022-11-20T00:10:39;28.70;;;16.20;;
56114;SDS011;41988;53.020;6.576;2022-11-20T00:13:24;27.30;;;15.27;;
56114;SDS011;41988;53.020;6.576;2022-11-20T00:16:12;27.07;;;15.73;;
56114;SDS011;41988;53.020;6.576;2022-11-20T00:18:58;25.37;;;14.20;;
56114;SDS011;41988;53.020;6.576;2022-11-20T00:21:43;29.53;;;16.43;;
56114;SDS011;41988;53.020;6.576;2022-11-20T00:24:27;26.13;;;15.03;;
56114;SDS011;41988;53.020;6.576;2022-11-20T00:27:12;25.53;;;14.97;;
56114;SDS011;41988;53.020;6.576;2022-11-20T00:29:56;26.47;;;16.17;;
56114;SDS011;41988;53.020;6.576;2022-11-20T00:32:41;26.70;;;14.20;;
56114;SDS011;41988;53.020;6.576;2022-11-20T00:35:25;21.87;;;13.53;;
56114;SDS011;41988;53.020;6.576;2022-11-20T00:38:10;24.33;;;14.97;;
56114;SDS011;41988;53.020;6.576;2022-11-20T00:40:58;22.13;;;13.63;;
56114;SDS011;41988;53.020;6.576;2022-11-20T00:43:44;23.00;;;12.70;;
56114;SDS011;41988;53.020;6.576;2022-11-20T00:46:28;24.20;;;13.20;;
56114;SDS011;41988;53.020;6.576;2022-11-20T00:49:13;22.53;;;14.13;;
56114;SDS011;41988;53.020;6.576;2022-11-20T00:51:58;22.27;;;12.53;;
56114;SDS011;41988;53.020;6.576;2022-11-20T00:54:43;22.97;;;12.90;;
56114;SDS011;41988;53.020;6.576;2022-11-20T00:57:27;22.60;;;13.03;;
56114;SDS011;41988;53.020;6.576;2022-11-20T01:00:12;24.50;;;12.67;;
56114;SDS011;41988;53.020;6.576;2022-11-20T01:02:56;23.07;;;12.47;;
56114;SDS011;41988;53.020;6.576;2022-11-20T01:05:40;20.10;;;12.40;;
56114;SDS011;41988;53.020;6.576;2022-11-20T01:08:25;19.47;;;11.63;;
56114;SDS011;41988;53.020;6.576;2022-11-20T01:11:12;21.07;;;12.70;;
56114;SDS011;41988;53.020;6.576;2022-11-20T01:14:01;21.47;;;12.80;;
56114;SDS011;41988;53.020;6.576;2022-11-20T01:16:48;19.27;;;12.17;;
56114;SDS011;41988;53.020;6.576;2022-11-20T01:19:34;22.30;;;12.20;;
56114;SDS011;41988;53.020;6.576;2022-11-20T01:22:18;24.63;;;13.70;;
56114;SDS011;41988;53.020;6.576;2022-11-20T01:25:03;26.63;;;13.37;;
56114;SDS011;41988;53.020;6.576;2022-11-20T01:27:47;21.27;;;13.03;;
56114;SDS011;41988;53.020;6.576;2022-11-20T01:30:32;25.70;;;13.87;;
56114;SDS011;41988;53.020;6.576;2022-11-20T01:33:16;20.50;;;13.10;;
56114;SDS011;41988;53.020;6.576;2022-11-20T01:36:04;20.73;;;12.83;;
56114;SDS011;41988;53.020;6.576;2022-11-20T01:38:53;17.73;;;11.73;;
56114;SDS011;41988;53.020;6.576;2022-11-20T01:41:45;20.47;;;12.30;;
56114;SDS011;41988;53.020;6.576;2022-11-20T01:47:40;22.97;;;11.70;;
56114;SDS011;41988;53.020;6.576;2022-11-20T01:50:28;17.63;;;11.73;;
56114;SDS011;41988;53.020;6.576;2022-11-20T01:53:14;20.10;;;11.63;;
56114;SDS011;41988;53.020;6.576;2022-11-20T01:56:03;19.40;;;10.83;;
56114;SDS011;41988;53.020;6.576;2022-11-20T01:58:51;20.20;;;11.50;;
56114;SDS011;41988;53.020;6.576;2022-11-20T02:01:39;17.70;;;11.27;;
56114;SDS011;41988;53.020;6.576;2022-11-20T02:04:23;19.73;;;12.53;;
56114;SDS011;41988;53.020;6.576;2022-11-20T02:07:08;21.53;;;11.90;;
56114;SDS011;41988;53.020;6.576;2022-11-20T02:09:53;20.27;;;11.53;;
56114;SDS011;41988;53.020;6.576;2022-11-20T02:12:38;18.77;;;11.37;;
56114;SDS011;41988;53.020;6.576;2022-11-20T02:15:41;21.00;;;12.40;;
56114;SDS011;41988;53.020;6.576;2022-11-20T02:18:26;20.30;;;12.03;;
56114;SDS011;41988;53.020;6.576;2022-11-20T02:21:13;18.97;;;11.07;;
56114;SDS011;41988;53.020;6.576;2022-11-20T02:24:11;18.13;;;10.93;;
56114;SDS011;41988;53.020;6.576;2022-11-20T02:27:03;19.30;;;11.63;;
56114;SDS011;41988;53.020;6.576;2022-11-20T02:29:57;18.50;;;11.43;;
56114;SDS011;41988;53.020;6.576;2022-11-20T02:32:45;20.52;;;12.43;;
56114;SDS011;41988;53.020;6.576;2022-11-20T02:38:15;20.33;;;12.37;;
56114;SDS011;41988;53.020;6.576;2022-11-20T02:40:59;20.97;;;12.47;;
56114;SDS011;41988;53.020;6.576;2022-11-20T02:43:44;21.77;;;11.77;;
56114;SDS011;41988;53.020;6.576;2022-11-20T02:46:29;18.20;;;11.27;;
56114;SDS011;41988;53.020;6.576;2022-11-20T02:49:14;18.97;;;11.90;;
56114;SDS011;41988;53.020;6.576;2022-11-20T02:52:00;18.47;;;11.40;;
56114;SDS011;41988;53.020;6.576;2022-11-20T02:54:44;17.67;;;11.97;;
56114;SDS011;41988;53.020;6.576;2022-11-20T02:57:29;17.23;;;11.17;;
56114;SDS011;41988;53.020;6.576;2022-11-20T03:00:13;16.80;;;10.40;;
56114;SDS011;41988;53.020;6.576;2022-11-20T03:02:58;18.20;;;10.13;;
56114;SDS011;41988;53.020;6.576;2022-11-20T03:05:42;21.17;;;12.00;;
56114;SDS011;41988;53.020;6.576;2022-11-20T03:08:27;20.10;;;12.07;;
56114;SDS011;41988;53.020;6.576;2022-11-20T03:11:12;18.67;;;11.50;;
56114;SDS011;41988;53.020;6.576;2022-11-20T03:13:56;18.00;;;11.63;;
56114;SDS011;41988;53.020;6.576;2022-11-20T03:16:41;21.40;;;11.87;;
56114;SDS011;41988;53.020;6.576;2022-11-20T03:19:25;17.67;;;11.57;;
56114;SDS011;41988;53.020;6.576;2022-11-20T03:22:10;17.03;;;11.50;;
56114;SDS011;41988;53.020;6.576;2022-11-20T03:24:54;16.43;;;11.53;;
56114;SDS011;41988;53.020;6.576;2022-11-20T03:27:39;16.40;;;10.87;;
56114;SDS011;41988;53.020;6.576;2022-11-20T03:30:23;18.53;;;10.97;;
56114;SDS011;41988;53.020;6.576;2022-11-20T03:33:08;18.77;;;10.80;;
56114;SDS011;41988;53.020;6.576;2022-11-20T03:35:52;18.37;;;11.77;;
56114;SDS011;41988;53.020;6.576;2022-11-20T03:38:37;18.60;;;12.10;;
56114;SDS011;41988;53.020;6.576;2022-11-20T03:41:23;17.50;;;11.07;;
56114;SDS011;41988;53.020;6.576;2022-11-20T03:44:10;21.33;;;11.60;;
56114;SDS011;41988;53.020;6.576;2022-11-20T03:46:56;18.37;;;10.73;;
56114;SDS011;41988;53.020;6.576;2022-11-20T03:49:40;22.43;;;12.27;;
56114;SDS011;41988;53.020;6.576;2022-11-20T03:52:25;18.37;;;11.27;;
56114;SDS011;41988;53.020;6.576;2022-11-20T03:55:09;20.53;;;11.83;;
56114;SDS011;41988;53.020;6.576;2022-11-20T03:57:54;21.37;;;12.43;;
56114;SDS011;41988;53.020;6.576;2022-11-20T04:00:38;19.17;;;11.93;;
56114;SDS011;41988;53.020;6.576;2022-11-20T04:03:23;19.20;;;11.30;;
56114;SDS011;41988;53.020;6.576;2022-11-20T04:06:09;20.63;;;11.17;;
56114;SDS011;41988;53.020;6.576;2022-11-20T04:08:55;20.07;;;11.50;;
56114;SDS011;41988;53.020;6.576;2022-11-20T04:11:41;20.53;;;11.73;;
56114;SDS011;41988;53.020;6.576;2022-11-20T04:14:25;21.30;;;12.43;;
56114;SDS011;41988;53.020;6.576;2022-11-20T04:17:10;23.37;;;12.10;;
56114;SDS011;41988;53.020;6.576;2022-11-20T04:19:54;18.27;;;11.77;;
56114;SDS011;41988;53.020;6.576;2022-11-20T04:22:39;18.83;;;11.37;;
56114;SDS011;41988;53.020;6.576;2022-11-20T04:25:24;19.27;;;10.83;;
56114;SDS011;41988;53.020;6.576;2022-11-20T04:28:09;18.80;;;11.93;;
56114;SDS011;41988;53.020;6.576;2022-11-20T04:30:53;19.60;;;11.87;;
56114;SDS011;41988;53.020;6.576;2022-11-20T04:33:38;15.70;;;10.10;;
56114;SDS011;41988;53.020;6.576;2022-11-20T04:36:24;19.27;;;10.67;;
56114;SDS011;41988;53.020;6.576;2022-11-20T04:39:13;16.60;;;10.87;;
56114;SDS011;41988;53.020;6.576;2022-11-20T04:41:59;19.73;;;11.23;;
56114;SDS011;41988;53.020;6.576;2022-11-20T04:45:02;17.63;;;10.55;;
56114;SDS011;41988;53.020;6.576;2022-11-20T04:47:47;22.10;;;11.77;;
56114;SDS011;41988;53.020;6.576;2022-11-20T04:50:31;18.80;;;11.13;;
56114;SDS011;41988;53.020;6.576;2022-11-20T04:53:16;17.30;;;10.03;;
56114;SDS011;41988;53.020;6.576;2022-11-20T04:56:03;17.03;;;10.93;;
56114;SDS011;41988;53.020;6.576;2022-11-20T04:58:50;14.20;;;9.80;;
56114;SDS011;41988;53.020;6.576;2022-11-20T05:01:34;17.03;;;9.80;;
56114;SDS011;41988;53.020;6.576;2022-11-20T05:04:19;18.23;;;9.93;;
56114;SDS011;41988;53.020;6.576;2022-11-20T05:07:03;16.07;;;9.53;;
56114;SDS011;41988;53.020;6.576;2022-11-20T05:09:48;15.73;;;9.40;;
56114;SDS011;41988;53.020;6.576;2022-11-20T05:12:32;16.23;;;10.80;;
56114;SDS011;41988;53.020;6.576;2022-11-20T05:15:17;18.90;;;10.93;;
56114;SDS011;41988;53.020;6.576;2022-11-20T05:18:01;15.70;;;10.70;;
56114;SDS011;41988;53.020;6.576;2022-11-20T05:20:46;14.30;;;9.30;;
56114;SDS011;41988;53.020;6.576;2022-11-20T05:23:31;18.87;;;9.40;;
56114;SDS011;41988;53.020;6.576;2022-11-20T05:26:20;17.23;;;9.37;;
56114;SDS011;41988;53.020;6.576;2022-11-20T05:29:05;15.57;;;9.53;;
56114;SDS011;41988;53.020;6.576;2022-11-20T05:31:50;16.53;;;9.70;;
56114;SDS011;41988;53.020;6.576;2022-11-20T05:34:35;14.63;;;9.87;;
56114;SDS011;41988;53.020;6.576;2022-11-20T05:37:19;14.97;;;10.00;;
56114;SDS011;41988;53.020;6.576;2022-11-20T05:40:04;15.10;;;9.73;;
56114;SDS011;41988;53.020;6.576;2022-11-20T05:42:49;16.03;;;10.23;;
56114;SDS011;41988;53.020;6.576;2022-11-20T05:45:33;15.43;;;10.13;;
56114;SDS011;41988;53.020;6.576;2022-11-20T05:48:18;15.40;;;9.17;;
56114;SDS011;41988;53.020;6.576;2022-11-20T05:51:03;17.60;;;10.10;;
56114;SDS011;41988;53.020;6.576;2022-11-20T05:53:49;15.53;;;9.73;;
56114;SDS011;41988;53.020;6.576;2022-11-20T05:56:34;16.50;;;9.67;;
56114;SDS011;41988;53.020;6.576;2022-11-20T05:59:19;16.00;;;9.63;;
56114;SDS011;41988;53.020;6.576;2022-11-20T06:02:03;15.37;;;9.67;;
56114;SDS011;41988;53.020;6.576;2022-11-20T06:04:48;16.70;;;10.23;;
56114;SDS011;41988;53.020;6.576;2022-11-20T06:07:32;14.67;;;8.73;;
56114;SDS011;41988;53.020;6.576;2022-11-20T06:10:17;16.70;;;10.00;;
56114;SDS011;41988;53.020;6.576;2022-11-20T06:13:01;16.90;;;9.83;;
56114;SDS011;41988;53.020;6.576;2022-11-20T06:15:49;14.73;;;9.13;;
56114;SDS011;41988;53.020;6.576;2022-11-20T06:18:35;16.47;;;10.23;;
56114;SDS011;41988;53.020;6.576;2022-11-20T06:21:20;15.27;;;9.93;;
56114;SDS011;41988;53.020;6.576;2022-11-20T06:24:05;16.53;;;9.70;;
56114;SDS011;41988;53.020;6.576;2022-11-20T06:26:50;17.07;;;9.83;;
56114;SDS011;41988;53.020;6.576;2022-11-20T06:29:35;18.13;;;10.63;;
56114;SDS011;41988;53.020;6.576;2022-11-20T06:32:19;17.67;;;11.10;;
56114;SDS011;41988;53.020;6.576;2022-11-20T06:35:04;17.97;;;10.57;;
56114;SDS011;41988;53.020;6.576;2022-11-20T06:37:48;16.97;;;10.73;;
56114;SDS011;41988;53.020;6.576;2022-11-20T06:40:32;18.73;;;10.33;;
56114;SDS011;41988;53.020;6.576;2022-11-20T06:43:17;15.13;;;10.03;;
56114;SDS011;41988;53.020;6.576;2022-11-20T06:46:02;15.13;;;9.77;;
56114;SDS011;41988;53.020;6.576;2022-11-20T06:48:47;16.57;;;10.00;;
56114;SDS011;41988;53.020;6.576;2022-11-20T06:51:32;15.73;;;9.97;;
56114;SDS011;41988;53.020;6.576;2022-11-20T06:54:16;14.57;;;8.60;;
56114;SDS011;41988;53.020;6.576;2022-11-20T06:57:01;16.60;;;10.00;;
56114;SDS011;41988;53.020;6.576;2022-11-20T06:59:46;15.77;;;9.17;;
56114;SDS011;41988;53.020;6.576;2022-11-20T07:02:30;13.97;;;8.43;;
56114;SDS011;41988;53.020;6.576;2022-11-20T07:05:15;16.13;;;10.00;;
56114;SDS011;41988;53.020;6.576;2022-11-20T07:08:00;15.53;;;8.93;;
56114;SDS011;41988;53.020;6.576;2022-11-20T07:10:46;17.50;;;9.73;;
56114;SDS011;41988;53.020;6.576;2022-11-20T07:13:30;18.23;;;8.43;;
56114;SDS011;41988;53.020;6.576;2022-11-20T07:16:14;14.93;;;9.50;;
56114;SDS011;41988;53.020;6.576;2022-11-20T07:18:59;18.50;;;9.63;;
56114;SDS011;41988;53.020;6.576;2022-11-20T07:21:44;14.70;;;9.37;;
56114;SDS011;41988;53.020;6.576;2022-11-20T07:24:28;13.53;;;8.60;;
56114;SDS011;41988;53.020;6.576;2022-11-20T07:27:13;14.97;;;8.97;;
56114;SDS011;41988;53.020;6.576;2022-11-20T07:29:57;13.53;;;9.00;;
56114;SDS011;41988;53.020;6.576;2022-11-20T07:32:42;14.23;;;8.20;;
56114;SDS011;41988;53.020;6.576;2022-11-20T07:35:26;15.23;;;10.07;;
56114;SDS011;41988;53.020;6.576;2022-11-20T07:38:11;15.60;;;9.20;;
56114;SDS011;41988;53.020;6.576;2022-11-20T07:40:56;13.00;;;8.23;;
56114;SDS011;41988;53.020;6.576;2022-11-20T07:43:44;15.33;;;8.60;;
56114;SDS011;41988;53.020;6.576;2022-11-20T07:46:29;16.17;;;8.63;;
56114;SDS011;41988;53.020;6.576;2022-11-20T07:49:13;12.47;;;8.10;;
56114;SDS011;41988;53.020;6.576;2022-11-20T07:52:07;12.63;;;8.07;;
56114;SDS011;41988;53.020;6.576;2022-11-20T07:54:52;14.67;;;8.90;;
56114;SDS011;41988;53.020;6.576;2022-11-20T07:57:36;12.83;;;8.30;;
56114;SDS011;41988;53.020;6.576;2022-11-20T08:00:21;15.70;;;8.47;;
56114;SDS011;41988;53.020;6.576;2022-11-20T08:03:05;13.00;;;8.27;;
56114;SDS011;41988;53.020;6.576;2022-11-20T08:05:50;13.47;;;7.77;;
56114;SDS011;41988;53.020;6.576;2022-11-20T08:08:35;14.10;;;8.87;;
56114;SDS011;41988;53.020;6.576;2022-11-20T08:11:19;14.13;;;9.57;;
56114;SDS011;41988;53.020;6.576;2022-11-20T08:14:22;15.90;;;10.23;;
56114;SDS011;41988;53.020;6.576;2022-11-20T08:17:07;17.57;;;9.67;;
56114;SDS011;41988;53.020;6.576;2022-11-20T08:19:51;13.90;;;8.80;;
56114;SDS011;41988;53.020;6.576;2022-11-20T08:22:36;13.53;;;9.03;;
56114;SDS011;41988;53.020;6.576;2022-11-20T08:25:20;12.00;;;7.63;;
56114;SDS011;41988;53.020;6.576;2022-11-20T08:28:06;14.30;;;8.97;;
56114;SDS011;41988;53.020;6.576;2022-11-20T08:30:57;12.13;;;7.87;;
56114;SDS011;41988;53.020;6.576;2022-11-20T08:33:45;12.50;;;8.47;;
56114;SDS011;41988;53.020;6.576;2022-11-20T08:36:32;13.33;;;8.30;;
56114;SDS011;41988;53.020;6.576;2022-11-20T08:39:17;14.17;;;7.97;;
56114;SDS011;41988;53.020;6.576;2022-11-20T08:42:06;14.20;;;8.53;;
56114;SDS011;41988;53.020;6.576;2022-11-20T08:44:51;14.10;;;7.77;;
56114;SDS011;41988;53.020;6.576;2022-11-20T08:47:35;15.50;;;8.73;;
56114;SDS011;41988;53.020;6.576;2022-11-20T08:52:54;15.07;;;8.73;;
56114;SDS011;41988;53.020;6.576;2022-11-20T08:55:39;12.50;;;8.00;;
56114;SDS011;41988;53.020;6.576;2022-11-20T08:58:24;14.43;;;8.50;;
56114;SDS011;41988;53.020;6.576;2022-11-20T09:01:08;13.27;;;8.23;;
56114;SDS011;41988;53.020;6.576;2022-11-20T09:03:55;14.23;;;8.83;;
56114;SDS011;41988;53.020;6.576;2022-11-20T09:06:40;11.90;;;8.23;;
56114;SDS011;41988;53.020;6.576;2022-11-20T09:09:25;14.30;;;8.23;;
56114;SDS011;41988;53.020;6.576;2022-11-20T09:12:09;14.50;;;8.73;;
56114;SDS011;41988;53.020;6.576;2022-11-20T09:14:54;13.30;;;8.17;;
56114;SDS011;41988;53.020;6.576;2022-11-20T09:17:38;15.27;;;9.37;;
56114;SDS011;41988;53.020;6.576;2022-11-20T09:20:23;13.63;;;8.50;;
56114;SDS011;41988;53.020;6.576;2022-11-20T09:23:08;13.97;;;8.27;;
56114;SDS011;41988;53.020;6.576;2022-11-20T09:25:53;14.70;;;9.37;;
56114;SDS011;41988;53.020;6.576;2022-11-20T09:28:39;13.70;;;8.07;;
56114;SDS011;41988;53.020;6.576;2022-11-20T09:31:24;13.43;;;8.23;;
56114;SDS011;41988;53.020;6.576;2022-11-20T09:34:12;13.60;;;8.57;;
56114;SDS011;41988;53.020;6.576;2022-11-20T09:36:57;13.70;;;8.13;;
56114;SDS011;41988;53.020;6.576;2022-11-20T09:39:41;12.77;;;8.40;;
56114;SDS011;41988;53.020;6.576;2022-11-20T09:51:12;12.13;;;8.17;;
56114;SDS011;41988;53.020;6.576;2022-11-20T09:57:00;12.53;;;8.00;;
56114;SDS011;41988;53.020;6.576;2022-11-20T09:59:59;14.03;;;8.23;;
56114;SDS011;41988;53.020;6.576;2022-11-20T10:02:55;14.50;;;8.57;;
56114;SDS011;41988;53.020;6.576;2022-11-20T10:05:46;13.77;;;8.53;;
56114;SDS011;41988;53.020;6.576;2022-11-20T10:08:39;10.07;;;7.27;;
56114;SDS011;41988;53.020;6.576;2022-11-20T10:30:27;17.83;;;8.17;;
56114;SDS011;41988;53.020;6.576;2022-11-20T10:39:14;11.70;;;7.47;;
56114;SDS011;41988;53.020;6.576;2022-11-20T10:42:08;12.10;;;7.37;;
56114;SDS011;41988;53.020;6.576;2022-11-20T10:45:02;10.30;;;7.23;;
56114;SDS011;41988;53.020;6.576;2022-11-20T11:00:38;12.13;;;7.83;;
56114;SDS011;41988;53.020;6.576;2022-11-20T11:03:27;14.87;;;8.77;;
56114;SDS011;41988;53.020;6.576;2022-11-20T11:09:21;10.53;;;6.43;;
56114;SDS011;41988;53.020;6.576;2022-11-20T11:12:13;12.63;;;6.53;;
56114;SDS011;41988;53.020;6.576;2022-11-20T11:14:58;12.13;;;6.63;;
56114;SDS011;41988;53.020;6.576;2022-11-20T11:17:46;11.27;;;6.97;;
56114;SDS011;41988;53.020;6.576;2022-11-20T11:20:31;10.67;;;6.63;;
56114;SDS011;41988;53.020;6.576;2022-11-20T11:23:26;9.73;;;7.20;;
56114;SDS011;41988;53.020;6.576;2022-11-20T11:26:20;8.65;;;5.70;;
56114;SDS011;41988;53.020;6.576;2022-11-20T11:29:15;9.43;;;6.30;;
56114;SDS011;41988;53.020;6.576;2022-11-20T11:32:10;8.83;;;6.30;;
56114;SDS011;41988;53.020;6.576;2022-11-20T11:35:01;9.87;;;6.37;;
56114;SDS011;41988;53.020;6.576;2022-11-20T11:37:46;11.30;;;6.50;;
56114;SDS011;41988;53.020;6.576;2022-11-20T11:40:33;9.60;;;5.87;;
56114;SDS011;41988;53.020;6.576;2022-11-20T11:43:21;7.70;;;5.13;;
56114;SDS011;41988;53.020;6.576;2022-11-20T11:49:18;9.23;;;6.37;;
56114;SDS011;41988;53.020;6.576;2022-11-20T11:52:19;9.23;;;5.53;;
56114;SDS011;41988;53.020;6.576;2022-11-20T11:55:07;10.63;;;6.00;;
56114;SDS011;41988;53.020;6.576;2022-11-20T11:58:02;8.87;;;6.03;;
56114;SDS011;41988;53.020;6.576;2022-11-20T12:07:41;6.73;;;4.77;;
56114;SDS011;41988;53.020;6.576;2022-11-20T12:10:43;10.27;;;5.53;;
56114;SDS011;41988;53.020;6.576;2022-11-20T12:13:35;9.53;;;5.87;;
56114;SDS011;41988;53.020;6.576;2022-11-20T12:16:33;9.70;;;6.27;;
56114;SDS011;41988;53.020;6.576;2022-11-20T12:19:20;10.37;;;6.67;;
56114;SDS011;41988;53.020;6.576;2022-11-20T12:28:01;8.63;;;6.73;;
56114;SDS011;41988;53.020;6.576;2022-11-20T12:31:14;8.30;;;6.27;;
56114;SDS011;41988;53.020;6.576;2022-11-20T12:34:09;9.88;;;6.97;;
56114;SDS011;41988;53.020;6.576;2022-11-20T12:39:49;9.27;;;6.40;;
56114;SDS011;41988;53.020;6.576;2022-11-20T12:49:05;12.33;;;6.67;;
56114;SDS011;41988;53.020;6.576;2022-11-20T12:52:06;9.43;;;6.07;;
56114;SDS011;41988;53.020;6.576;2022-11-20T12:55:15;10.93;;;6.93;;
56114;SDS011;41988;53.020;6.576;2022-11-20T13:01:21;10.33;;;6.27;;
56114;SDS011;41988;53.020;6.576;2022-11-20T13:07:12;10.30;;;6.63;;
56114;SDS011;41988;53.020;6.576;2022-11-20T13:09:58;9.83;;;6.17;;
56114;SDS011;41988;53.020;6.576;2022-11-20T13:12:49;10.27;;;6.30;;
56114;SDS011;41988;53.020;6.576;2022-11-20T13:16:06;10.70;;;5.77;;
56114;SDS011;41988;53.020;6.576;2022-11-20T13:19:01;7.70;;;5.43;;
56114;SDS011;41988;53.020;6.576;2022-11-20T13:21:48;8.00;;;5.30;;
56114;SDS011;41988;53.020;6.576;2022-11-20T13:24:34;6.43;;;4.50;;
56114;SDS011;41988;53.020;6.576;2022-11-20T13:27:19;8.07;;;5.07;;
56114;SDS011;41988;53.020;6.576;2022-11-20T13:30:14;6.43;;;4.33;;
56114;SDS011;41988;53.020;6.576;2022-11-20T13:33:08;7.70;;;4.93;;
56114;SDS011;41988;53.020;6.576;2022-11-20T13:36:23;7.23;;;4.73;;
56114;SDS011;41988;53.020;6.576;2022-11-20T13:39:09;6.63;;;4.47;;
56114;SDS011;41988;53.020;6.576;2022-11-20T13:41:59;9.87;;;5.03;;
56114;SDS011;41988;53.020;6.576;2022-11-20T13:44:53;7.20;;;4.40;;
56114;SDS011;41988;53.020;6.576;2022-11-20T13:47:38;9.40;;;5.07;;
56114;SDS011;41988;53.020;6.576;2022-11-20T13:50:38;6.93;;;4.50;;
56114;SDS011;41988;53.020;6.576;2022-11-20T14:02:16;7.33;;;4.90;;
56114;SDS011;41988;53.020;6.576;2022-11-20T14:05:02;9.03;;;5.17;;
56114;SDS011;41988;53.020;6.576;2022-11-20T14:07:48;10.17;;;5.30;;
56114;SDS011;41988;53.020;6.576;2022-11-20T14:10:34;9.17;;;5.30;;
56114;SDS011;41988;53.020;6.576;2022-11-20T14:13:22;10.20;;;6.07;;
56114;SDS011;41988;53.020;6.576;2022-11-20T14:16:08;9.97;;;5.23;;
56114;SDS011;41988;53.020;6.576;2022-11-20T14:18:53;8.10;;;5.80;;
56114;SDS011;41988;53.020;6.576;2022-11-20T14:21:38;12.97;;;5.80;;
56114;SDS011;41988;53.020;6.576;2022-11-20T14:24:23;9.77;;;5.00;;
56114;SDS011;41988;53.020;6.576;2022-11-20T14:27:12;8.50;;;5.73;;
56114;SDS011;41988;53.020;6.576;2022-11-20T14:30:00;8.37;;;6.03;;
56114;SDS011;41988;53.020;6.576;2022-11-20T14:32:45;8.53;;;5.50;;
56114;SDS011;41988;53.020;6.576;2022-11-20T14:35:33;10.63;;;5.93;;
56114;SDS011;41988;53.020;6.576;2022-11-20T14:38:24;9.50;;;5.43;;
56114;SDS011;41988;53.020;6.576;2022-11-20T14:41:18;8.40;;;5.63;;
56114;SDS011;41988;53.020;6.576;2022-11-20T14:44:04;8.40;;;5.87;;
56114;SDS011;41988;53.020;6.576;2022-11-20T14:46:49;9.67;;;6.27;;
56114;SDS011;41988;53.020;6.576;2022-11-20T14:49:35;9.70;;;6.57;;
56114;SDS011;41988;53.020;6.576;2022-11-20T14:52:21;8.47;;;5.90;;
56114;SDS011;41988;53.020;6.576;2022-11-20T14:55:07;11.23;;;7.00;;
56114;SDS011;41988;53.020;6.576;2022-11-20T14:57:59;12.30;;;7.20;;
56114;SDS011;41988;53.020;6.576;2022-11-20T15:00:54;11.90;;;7.07;;
56114;SDS011;41988;53.020;6.576;2022-11-20T15:03:43;11.30;;;7.77;;
56114;SDS011;41988;53.020;6.576;2022-11-20T15:06:28;11.83;;;7.37;;
56114;SDS011;41988;53.020;6.576;2022-11-20T15:09:14;13.30;;;7.27;;
56114;SDS011;41988;53.020;6.576;2022-11-20T15:12:00;12.60;;;7.53;;
56114;SDS011;41988;53.020;6.576;2022-11-20T15:14:45;13.47;;;8.20;;
56114;SDS011;41988;53.020;6.576;2022-11-20T15:17:30;14.00;;;8.80;;
56114;SDS011;41988;53.020;6.576;2022-11-20T15:20:16;14.33;;;9.90;;
56114;SDS011;41988;53.020;6.576;2022-11-20T15:23:01;11.97;;;7.93;;
56114;SDS011;41988;53.020;6.576;2022-11-20T15:25:45;10.73;;;7.20;;
56114;SDS011;41988;53.020;6.576;2022-11-20T15:28:32;12.43;;;7.77;;
56114;SDS011;41988;53.020;6.576;2022-11-20T15:31:21;10.87;;;7.73;;
56114;SDS011;41988;53.020;6.576;2022-11-20T15:34:09;11.50;;;7.90;;
56114;SDS011;41988;53.020;6.576;2022-11-20T15:36:55;13.00;;;8.03;;
56114;SDS011;41988;53.020;6.576;2022-11-20T15:39:39;13.67;;;8.27;;
56114;SDS011;41988;53.020;6.576;2022-11-20T15:42:24;13.03;;;8.13;;
56114;SDS011;41988;53.020;6.576;2022-11-20T15:45:09;13.83;;;8.37;;
56114;SDS011;41988;53.020;6.576;2022-11-20T15:47:53;14.17;;;8.17;;
56114;SDS011;41988;53.020;6.576;2022-11-20T15:50:57;18.70;;;10.17;;
56114;SDS011;41988;53.020;6.576;2022-11-20T15:53:55;13.10;;;8.37;;
56114;SDS011;41988;53.020;6.576;2022-11-20T15:56:40;13.43;;;9.53;;
56114;SDS011;41988;53.020;6.576;2022-11-20T15:59:24;13.50;;;9.13;;
56114;SDS011;41988;53.020;6.576;2022-11-20T16:02:12;14.13;;;9.47;;
56114;SDS011;41988;53.020;6.576;2022-11-20T16:04:58;12.60;;;8.20;;
56114;SDS011;41988;53.020;6.576;2022-11-20T16:07:43;14.70;;;9.33;;
56114;SDS011;41988;53.020;6.576;2022-11-20T16:10:27;15.27;;;9.27;;
56114;SDS011;41988;53.020;6.576;2022-11-20T16:13:17;17.47;;;10.33;;
56114;SDS011;41988;53.020;6.576;2022-11-20T16:16:38;14.97;;;10.10;;
56114;SDS011;41988;53.020;6.576;2022-11-20T16:19:25;17.53;;;11.10;;
56114;SDS011;41988;53.020;6.576;2022-11-20T16:22:10;19.57;;;11.20;;
56114;SDS011;41988;53.020;6.576;2022-11-20T16:24:54;18.60;;;11.40;;
56114;SDS011;41988;53.020;6.576;2022-11-20T16:27:39;21.23;;;11.10;;
56114;SDS011;41988;53.020;6.576;2022-11-20T16:30:23;15.43;;;9.93;;
56114;SDS011;41988;53.020;6.576;2022-11-20T16:33:12;18.37;;;10.87;;
56114;SDS011;41988;53.020;6.576;2022-11-20T16:35:57;19.43;;;11.30;;
56114;SDS011;41988;53.020;6.576;2022-11-20T16:38:42;17.23;;;11.67;;
56114;SDS011;41988;53.020;6.576;2022-11-20T16:41:27;17.90;;;10.33;;
56114;SDS011;41988;53.020;6.576;2022-11-20T16:44:12;16.83;;;11.20;;
56114;SDS011;41988;53.020;6.576;2022-11-20T16:46:58;20.83;;;11.03;;
56114;SDS011;41988;53.020;6.576;2022-11-20T16:49:42;17.67;;;11.93;;
56114;SDS011;41988;53.020;6.576;2022-11-20T16:52:27;20.40;;;11.80;;
56114;SDS011;41988;53.020;6.576;2022-11-20T16:55:12;15.67;;;10.87;;
56114;SDS011;41988;53.020;6.576;2022-11-20T16:57:56;18.90;;;11.73;;
56114;SDS011;41988;53.020;6.576;2022-11-20T17:00:41;15.97;;;10.63;;
56114;SDS011;41988;53.020;6.576;2022-11-20T17:03:26;15.13;;;10.77;;
56114;SDS011;41988;53.020;6.576;2022-11-20T17:06:14;17.00;;;11.50;;
56114;SDS011;41988;53.020;6.576;2022-11-20T17:09:06;17.07;;;11.53;;
56114;SDS011;41988;53.020;6.576;2022-11-20T17:11:52;16.57;;;11.00;;
56114;SDS011;41988;53.020;6.576;2022-11-20T17:14:36;18.23;;;10.97;;
56114;SDS011;41988;53.020;6.576;2022-11-20T17:17:21;19.00;;;11.67;;
56114;SDS011;41988;53.020;6.576;2022-11-20T17:20:06;17.53;;;11.33;;
56114;SDS011;41988;53.020;6.576;2022-11-20T17:22:51;17.47;;;10.53;;
56114;SDS011;41988;53.020;6.576;2022-11-20T17:25:35;19.80;;;12.47;;
56114;SDS011;41988;53.020;6.576;2022-11-20T17:28:20;22.00;;;13.70;;
56114;SDS011;41988;53.020;6.576;2022-11-20T17:31:08;18.33;;;11.27;;
56114;SDS011;41988;53.020;6.576;2022-11-20T17:33:56;18.13;;;11.73;;
56114;SDS011;41988;53.020;6.576;2022-11-20T17:36:42;19.47;;;11.80;;
56114;SDS011;41988;53.020;6.576;2022-11-20T17:39:30;17.30;;;11.43;;
56114;SDS011;41988;53.020;6.576;2022-11-20T17:42:14;19.60;;;11.87;;
56114;SDS011;41988;53.020;6.576;2022-11-20T17:45:12;17.23;;;10.50;;
56114;SDS011;41988;53.020;6.576;2022-11-20T17:47:56;19.63;;;11.40;;
56114;SDS011;41988;53.020;6.576;2022-11-20T17:50:41;17.67;;;10.77;;
56114;SDS011;41988;53.020;6.576;2022-11-20T17:53:26;18.83;;;11.67;;
56114;SDS011;41988;53.020;6.576;2022-11-20T17:56:11;18.40;;;11.97;;
56114;SDS011;41988;53.020;6.576;2022-11-20T17:59:14;17.00;;;12.20;;
56114;SDS011;41988;53.020;6.576;2022-11-20T18:02:01;17.43;;;12.03;;
56114;SDS011;41988;53.020;6.576;2022-11-20T18:04:45;20.40;;;13.43;;
56114;SDS011;41988;53.020;6.576;2022-11-20T18:07:29;18.40;;;12.47;;
56114;SDS011;41988;53.020;6.576;2022-11-20T18:10:14;22.80;;;12.73;;